WXM80 ListenWXM80 Stop

You find our weather info also at:

UK Metoffice

WeatherCloud

Weather Underground

Northeastern Weather Network

AWEKAS

Citizen Weather Observer Program (CWOP)

HAMweather, WeatherForYou, PWS Weather


Weather Underground History page Text

Daily Summary for March 2, 2016 Units:  English    Metric   Both
« Previous Day
Next Day »
Daily Weekly Monthly Yearly Custom
  High: Low: Average:
Temperature: 54.5 °F 29.0 °F 43.3 °F
Dew Point: 51.3 °F 14.7 °F 31.5 °F
Humidity: 94 % 42 % 65 %
Wind Speed: 16.0 mph 2.7 mph 8 mph
Wind Gust: 27.6 mph - -
Wind:- - West
Pressure: 30.07 in 29.43 in -
Precipitation: 0.10 in    
Historical Graphs
 
 
Tabular Data for March 2, 2016
Time Temperature Dew Point Pressure Wind Wind Speed Wind Gust Humidity Rainfall Rate (Hourly)
00:02 52.5 °F 49.9 °F 29.62 in South 8.3 mph 15.0 mph 91 % 0.00 in
00:07 52.8 °F 50.2 °F 29.61 in SSE 8.4 mph 16.1 mph 91 % 0.00 in
00:12 53.0 °F 50.4 °F 29.61 in SW 7.5 mph 12.7 mph 91 % 0.00 in
00:17 53.2 °F 50.3 °F 29.60 in South 8.9 mph 15.0 mph 90 % 0.00 in
00:22 53.2 °F 50.3 °F 29.60 in South 10.0 mph 15.0 mph 90 % 0.00 in
00:33 53.7 °F 50.8 °F 29.59 in SE 8.7 mph 19.6 mph 90 % 0.00 in
00:38 53.9 °F 50.7 °F 29.59 in SSE 9.4 mph 16.1 mph 89 % 0.00 in
00:43 54.0 °F 50.8 °F 29.58 in SE 8.2 mph 18.4 mph 89 % 0.00 in
00:48 54.0 °F 50.8 °F 29.58 in SE 7.8 mph 11.5 mph 89 % 0.00 in
00:53 54.0 °F 50.8 °F 29.59 in South 7.9 mph 19.6 mph 89 % 0.00 in
00:58 54.0 °F 50.8 °F 29.58 in South 8.0 mph 10.4 mph 89 % 0.00 in
01:03 53.9 °F 50.7 °F 29.58 in SSW 6.0 mph 13.8 mph 89 % 0.00 in
01:08 53.9 °F 50.7 °F 29.57 in SSW 7.4 mph 10.4 mph 89 % 0.00 in
01:13 53.9 °F 50.7 °F 29.57 in SSW 9.1 mph 19.0 mph 89 % 0.00 in
01:18 54.0 °F 50.8 °F 29.57 in SSW 11.8 mph 13.8 mph 89 % 0.00 in
01:24 54.2 °F 51.0 °F 29.57 in South 7.8 mph 9.2 mph 89 % 0.00 in
01:29 54.3 °F 50.8 °F 29.57 in South 7.7 mph 17.3 mph 88 % 0.00 in
01:34 54.4 °F 50.9 °F 29.57 in SSW 9.5 mph 18.4 mph 88 % 0.00 in
01:39 54.5 °F 51.3 °F 29.56 in South 8.9 mph 17.0 mph 89 % 0.00 in
01:44 54.4 °F 51.2 °F 29.56 in SW 8.6 mph 16.1 mph 89 % 0.00 in
01:49 54.2 °F 51.3 °F 29.56 in SE 6.8 mph 12.7 mph 90 % 0.00 in
01:54 54.0 °F 51.1 °F 29.56 in SW 7.8 mph 17.3 mph 90 % 0.01 in
01:59 53.8 °F 50.9 °F 29.54 in SSE 8.2 mph 11.0 mph 90 % 0.01 in
02:04 53.5 °F 50.6 °F 29.53 in South 8.7 mph 17.0 mph 90 % 0.01 in
02:09 53.3 °F 50.7 °F 29.53 in South 6.6 mph 12.0 mph 91 % 0.01 in
02:15 53.1 °F 50.5 °F 29.52 in SSE 6.6 mph 9.2 mph 91 % 0.01 in
02:20 53.0 °F 50.4 °F 29.52 in SSW 9.4 mph 15.0 mph 91 % 0.01 in
02:25 52.8 °F 50.2 °F 29.50 in SSW 4.8 mph 9.2 mph 91 % 0.01 in
02:30 52.8 °F 50.2 °F 29.50 in SSW 6.8 mph 15.0 mph 91 % 0.01 in
02:35 52.8 °F 50.2 °F 29.49 in SSE 5.6 mph 11.5 mph 91 % 0.01 in
02:40 52.8 °F 50.2 °F 29.49 in SSE 10.0 mph 17.3 mph 91 % 0.01 in
02:45 52.8 °F 49.9 °F 29.48 in South 5.3 mph 16.1 mph 90 % 0.01 in
02:50 52.9 °F 50.0 °F 29.47 in SSW 6.3 mph 10.4 mph 90 % 0.01 in
02:55 53.0 °F 50.1 °F 29.47 in SSW 7.3 mph 10.4 mph 90 % 0.00 in
03:00 53.1 °F 50.2 °F 29.47 in SSE 7.6 mph 19.6 mph 90 % 0.00 in
03:06 53.2 °F 50.0 °F 29.47 in South 10.2 mph 16.1 mph 89 % 0.00 in
03:11 53.3 °F 50.1 °F 29.47 in South 14.2 mph 19.6 mph 89 % 0.01 in
03:16 53.1 °F 50.2 °F 29.47 in South 5.8 mph 12.0 mph 90 % 0.02 in
03:21 52.8 °F 49.9 °F 29.46 in South 8.2 mph 13.8 mph 90 % 0.02 in
03:26 52.6 °F 50.0 °F 29.46 in South 6.8 mph 12.7 mph 91 % 0.03 in
03:31 52.3 °F 49.8 °F 29.46 in South 8.7 mph 13.8 mph 91 % 0.03 in
03:36 52.1 °F 49.6 °F 29.46 in SE 10.9 mph 17.3 mph 91 % 0.03 in
03:41 51.9 °F 49.4 °F 29.46 in SSW 8.0 mph 16.0 mph 91 % 0.03 in
03:46 51.7 °F 49.5 °F 29.45 in South 9.2 mph 13.8 mph 92 % 0.03 in
03:51 51.6 °F 49.4 °F 29.44 in South 8.6 mph 12.0 mph 92 % 0.03 in
03:57 51.4 °F 49.2 °F 29.44 in SW 8.4 mph 15.0 mph 92 % 0.03 in
04:02 51.3 °F 49.1 °F 29.44 in SSW 7.0 mph 12.7 mph 92 % 0.03 in
04:07 51.2 °F 49.0 °F 29.44 in South 8.1 mph 13.8 mph 92 % 0.03 in
04:17 51.1 °F 48.9 °F 29.44 in SSW 6.9 mph 9.2 mph 92 % 0.01 in
04:22 51.0 °F 48.8 °F 29.44 in SSW 6.4 mph 11.5 mph 92 % 0.01 in
04:27 51.0 °F 48.8 °F 29.44 in SSW 5.9 mph 10.4 mph 92 % 0.00 in
04:32 50.9 °F 48.7 °F 29.44 in SSW 6.8 mph 10.4 mph 92 % 0.00 in
04:37 50.9 °F 48.7 °F 29.43 in South 6.3 mph 9.2 mph 92 % 0.00 in
04:43 50.8 °F 48.6 °F 29.44 in SSW 7.1 mph 11.0 mph 92 % 0.00 in
04:48 50.8 °F 48.6 °F 29.44 in SSW 7.6 mph 11.5 mph 92 % 0.00 in
04:53 50.8 °F 48.6 °F 29.44 in South 7.7 mph 17.3 mph 92 % 0.00 in
04:58 50.8 °F 48.6 °F 29.44 in SSW 6.7 mph 9.0 mph 92 % 0.00 in
05:03 50.8 °F 48.8 °F 29.44 in SSW 5.4 mph 10.4 mph 93 % 0.01 in
05:08 50.7 °F 48.7 °F 29.45 in SW 5.8 mph 12.7 mph 93 % 0.01 in
05:13 50.7 °F 48.7 °F 29.45 in SW 8.0 mph 13.8 mph 93 % 0.01 in
05:18 50.6 °F 48.7 °F 29.46 in SW 4.4 mph 7.0 mph 93 % 0.02 in
05:23 50.6 °F 48.7 °F 29.47 in South 5.3 mph 7.0 mph 93 % 0.02 in
05:28 50.6 °F 48.7 °F 29.47 in SSW 4.8 mph 12.7 mph 93 % 0.02 in
05:34 50.5 °F 48.8 °F 29.47 in West 4.5 mph 5.8 mph 94 % 0.02 in
05:39 50.5 °F 48.8 °F 29.48 in SSW 4.4 mph 9.2 mph 94 % 0.02 in
05:44 50.5 °F 48.8 °F 29.48 in SSW 6.9 mph 10.4 mph 94 % 0.03 in
05:49 50.4 °F 48.7 °F 29.48 in SW 3.1 mph 5.8 mph 94 % 0.03 in
05:59 50.3 °F 48.6 °F 29.48 in WSW 6.2 mph 9.2 mph 94 % 0.04 in
06:09 50.3 °F 48.6 °F 29.49 in WSW 5.9 mph 11.0 mph 94 % 0.04 in
06:14 50.2 °F 48.3 °F 29.48 in NNW 5.2 mph 10.0 mph 93 % 0.04 in
06:19 49.9 °F 47.4 °F 29.48 in SW 6.2 mph 11.5 mph 91 % 0.03 in
06:25 49.6 °F 46.5 °F 29.47 in WSW 9.3 mph 9.3 mph 89 % 0.03 in
06:30 49.3 °F 45.9 °F 29.47 in WSW 7.1 mph 9.2 mph 88 % 0.03 in
06:35 49.1 °F 45.7 °F 29.46 in SW 4.3 mph 8.1 mph 88 % 0.04 in
06:40 49.0 °F 45.9 °F 29.47 in WNW 3.1 mph 6.9 mph 89 % 0.04 in
06:45 48.9 °F 45.5 °F 29.47 in WSW 6.1 mph 13.8 mph 88 % 0.03 in
06:50 48.8 °F 45.4 °F 29.47 in West 6.7 mph 10.4 mph 88 % 0.03 in
06:55 48.7 °F 45.3 °F 29.47 in SW 4.0 mph 7.0 mph 88 % 0.02 in
07:00 48.6 °F 45.2 °F 29.47 in SW 2.7 mph 5.0 mph 88 % 0.02 in
07:05 48.6 °F 45.5 °F 29.47 in SSW 3.8 mph 5.8 mph 89 % 0.02 in
07:10 48.5 °F 45.4 °F 29.46 in South 5.3 mph 6.0 mph 89 % 0.01 in
07:16 48.6 °F 45.5 °F 29.46 in SSW 8.0 mph 10.0 mph 89 % 0.01 in
07:21 48.6 °F 45.5 °F 29.47 in South 3.6 mph 7.0 mph 89 % 0.01 in
07:26 48.6 °F 45.5 °F 29.48 in WSW 5.4 mph 11.5 mph 89 % 0.01 in
07:31 48.6 °F 45.5 °F 29.48 in SW 6.5 mph 11.5 mph 89 % 0.00 in
07:36 48.8 °F 45.4 °F 29.49 in SW 8.2 mph 13.8 mph 88 % 0.00 in
07:41 48.9 °F 45.5 °F 29.50 in SW 5.7 mph 11.5 mph 88 % 0.00 in
07:46 49.1 °F 45.4 °F 29.50 in West 4.8 mph 15.0 mph 87 % 0.00 in
07:51 49.3 °F 45.3 °F 29.51 in WSW 8.6 mph 17.0 mph 86 % 0.00 in
07:56 49.5 °F 44.6 °F 29.51 in West 7.6 mph 16.1 mph 83 % 0.00 in
08:01 49.5 °F 43.3 °F 29.52 in SW 12.3 mph 20.7 mph 79 % 0.00 in
08:07 49.4 °F 41.8 °F 29.52 in West 7.5 mph 15.0 mph 75 % 0.00 in
08:12 49.2 °F 40.2 °F 29.53 in WSW 11.4 mph 20.7 mph 71 % 0.00 in
08:17 48.9 °F 39.2 °F 29.53 in West 10.0 mph 20.7 mph 69 % 0.00 in
08:22 48.7 °F 38.6 °F 29.53 in WSW 8.4 mph 11.5 mph 68 % 0.00 in
08:27 48.5 °F 38.4 °F 29.54 in WSW 10.0 mph 17.3 mph 68 % 0.00 in
08:32 48.3 °F 38.6 °F 29.54 in West 9.7 mph 19.6 mph 69 % 0.00 in
08:37 48.2 °F 38.9 °F 29.55 in WSW 10.3 mph 16.1 mph 70 % 0.00 in
08:47 48.0 °F 38.3 °F 29.55 in West 8.1 mph 27.6 mph 69 % 0.00 in
08:52 47.8 °F 37.4 °F 29.56 in NNW 5.6 mph 10.4 mph 67 % 0.00 in
08:58 47.6 °F 36.8 °F 29.56 in West 11.2 mph 23.0 mph 66 % 0.00 in
09:03 47.0 °F 34.6 °F 29.56 in ENE 10.9 mph 20.7 mph 62 % 0.00 in
09:08 46.7 °F 34.0 °F 29.57 in SW 11.7 mph 23.0 mph 61 % 0.00 in
09:13 46.5 °F 34.2 °F 29.58 in WSW 11.2 mph 19.6 mph 62 % 0.00 in
09:18 46.5 °F 33.8 °F 29.58 in WSW 8.6 mph 25.0 mph 61 % 0.00 in
09:23 46.4 °F 33.7 °F 29.58 in WSW 5.6 mph 10.4 mph 61 % 0.00 in
09:28 46.6 °F 34.3 °F 29.58 in West 4.1 mph 11.5 mph 62 % 0.00 in
09:33 46.9 °F 33.7 °F 29.59 in SW 10.7 mph 18.0 mph 60 % 0.00 in
09:38 47.2 °F 34.0 °F 29.59 in WSW 7.1 mph 13.8 mph 60 % 0.00 in
09:43 47.4 °F 33.8 °F 29.59 in West 6.4 mph 18.4 mph 59 % 0.00 in
09:49 47.4 °F 33.8 °F 29.59 in WNW 9.7 mph 23.0 mph 59 % 0.00 in
09:54 47.3 °F 33.7 °F 29.59 in WSW 9.8 mph 14.0 mph 59 % 0.00 in
09:59 47.3 °F 33.3 °F 29.60 in WSW 11.4 mph 20.7 mph 58 % 0.00 in
10:04 46.9 °F 32.9 °F 29.60 in SW 11.9 mph 18.4 mph 58 % 0.00 in
10:14 46.7 °F 33.5 °F 29.61 in WSW 6.7 mph 18.4 mph 60 % 0.00 in
10:24 46.7 °F 33.1 °F 29.62 in West 5.3 mph 10.4 mph 59 % 0.00 in
10:29 46.8 °F 32.8 °F 29.62 in West 12.3 mph 21.9 mph 58 % 0.00 in
10:34 46.4 °F 32.0 °F 29.63 in NNW 13.2 mph 19.6 mph 57 % 0.00 in
10:40 45.9 °F 31.1 °F 29.63 in WNW 10.3 mph 21.9 mph 56 % 0.00 in
10:45 45.6 °F 29.9 °F 29.63 in WNW 12.3 mph 18.4 mph 54 % 0.00 in
10:50 45.2 °F 29.5 °F 29.63 in NW 10.5 mph 19.6 mph 54 % 0.00 in
10:55 45.2 °F 29.1 °F 29.64 in West 8.4 mph 19.6 mph 53 % 0.00 in
11:00 45.2 °F 29.5 °F 29.63 in NW 8.6 mph 12.7 mph 54 % 0.00 in
11:05 45.5 °F 29.3 °F 29.63 in WNW 10.0 mph 19.6 mph 53 % 0.00 in
11:10 45.4 °F 28.3 °F 29.64 in West 7.1 mph 17.3 mph 51 % 0.00 in
11:15 45.3 °F 28.2 °F 29.64 in NW 12.0 mph 17.3 mph 51 % 0.00 in
11:20 44.9 °F 27.4 °F 29.64 in NW 8.8 mph 14.0 mph 50 % 0.00 in
11:25 44.7 °F 26.7 °F 29.64 in WSW 9.5 mph 17.3 mph 49 % 0.00 in
11:31 44.6 °F 26.6 °F 29.65 in WSW 3.9 mph 13.8 mph 49 % 0.00 in
11:36 44.6 °F 26.1 °F 29.65 in WNW 8.1 mph 17.3 mph 48 % 0.00 in
11:41 44.4 °F 25.4 °F 29.65 in NW 15.4 mph 24.2 mph 47 % 0.00 in
11:46 44.1 °F 24.6 °F 29.65 in WNW 14.1 mph 18.4 mph 46 % 0.00 in
11:51 44.0 °F 25.0 °F 29.65 in WNW 13.7 mph 24.2 mph 47 % 0.00 in
11:56 43.9 °F 26.0 °F 29.65 in West 6.5 mph 18.4 mph 49 % 0.00 in
12:01 44.1 °F 26.1 °F 29.65 in NW 9.3 mph 16.0 mph 49 % 0.00 in
12:06 44.2 °F 25.2 °F 29.65 in NW 10.7 mph 19.6 mph 47 % 0.00 in
12:11 43.9 °F 24.9 °F 29.65 in WNW 9.5 mph 19.6 mph 47 % 0.00 in
12:16 44.1 °F 26.1 °F 29.65 in NW 8.3 mph 22.0 mph 49 % 0.00 in
12:22 44.0 °F 26.5 °F 29.65 in WNW 9.4 mph 21.0 mph 50 % 0.00 in
12:27 44.0 °F 26.0 °F 29.65 in West 10.7 mph 18.4 mph 49 % 0.00 in
12:32 44.1 °F 26.1 °F 29.65 in WNW 7.8 mph 11.5 mph 49 % 0.00 in
12:37 44.2 °F 25.2 °F 29.64 in NW 9.7 mph 17.0 mph 47 % 0.00 in
12:42 44.3 °F 24.8 °F 29.65 in WNW 9.8 mph 12.7 mph 46 % 0.00 in
12:47 44.3 °F 24.3 °F 29.65 in North 8.2 mph 16.1 mph 45 % 0.00 in
12:52 44.5 °F 25.0 °F 29.65 in WNW 9.4 mph 16.1 mph 46 % 0.00 in
12:57 44.2 °F 22.5 °F 29.66 in NW 16.0 mph 26.5 mph 42 % 0.00 in
13:02 43.7 °F 23.7 °F 29.65 in NW 11.0 mph 12.7 mph 45 % 0.00 in
13:07 43.4 °F 23.4 °F 29.65 in NW 10.7 mph 15.0 mph 45 % 0.00 in
13:13 43.4 °F 24.5 °F 29.65 in NW 8.7 mph 16.0 mph 47 % 0.00 in
13:18 43.4 °F 22.9 °F 29.65 in WNW 8.8 mph 21.0 mph 44 % 0.00 in
13:23 43.2 °F 23.3 °F 29.66 in WNW 8.0 mph 19.6 mph 45 % 0.00 in
13:28 43.0 °F 23.1 °F 29.67 in WNW 8.6 mph 15.0 mph 45 % 0.00 in
13:33 43.0 °F 23.1 °F 29.67 in NW 10.9 mph 20.7 mph 45 % 0.00 in
13:38 43.0 °F 22.5 °F 29.67 in NNW 7.9 mph 13.8 mph 44 % 0.00 in
13:43 43.1 °F 23.7 °F 29.68 in WNW 10.9 mph 19.0 mph 46 % 0.00 in
13:48 43.2 °F 22.2 °F 29.69 in SW 11.3 mph 16.1 mph 43 % 0.00 in
13:53 43.3 °F 22.8 °F 29.69 in WNW 10.5 mph 15.0 mph 44 % 0.00 in
13:58 43.5 °F 23.5 °F 29.69 in WNW 8.3 mph 11.5 mph 45 % 0.00 in
14:04 43.6 °F 22.0 °F 29.69 in WNW 8.2 mph 15.0 mph 42 % 0.00 in
14:09 43.6 °F 22.5 °F 29.70 in West 7.8 mph 23.0 mph 43 % 0.00 in
14:14 43.4 °F 22.4 °F 29.70 in NW 4.3 mph 9.2 mph 43 % 0.00 in
14:19 43.3 °F 22.3 °F 29.70 in West 6.1 mph 17.3 mph 43 % 0.00 in
14:24 43.2 °F 22.2 °F 29.70 in West 9.6 mph 12.7 mph 43 % 0.00 in
14:29 43.0 °F 23.1 °F 29.71 in WSW 7.8 mph 11.5 mph 45 % 0.00 in
14:34 42.8 °F 22.4 °F 29.71 in NNW 8.5 mph 17.3 mph 44 % 0.00 in
14:39 42.6 °F 22.7 °F 29.72 in West 8.1 mph 12.7 mph 45 % 0.00 in
14:44 42.4 °F 22.5 °F 29.72 in NW 7.1 mph 16.1 mph 45 % 0.00 in
14:49 42.1 °F 22.8 °F 29.72 in WNW 10.7 mph 18.4 mph 46 % 0.00 in
14:55 42.0 °F 22.7 °F 29.73 in NNW 8.6 mph 12.7 mph 46 % 0.00 in
15:00 41.7 °F 21.9 °F 29.74 in NW 11.6 mph 17.3 mph 45 % 0.00 in
15:05 41.3 °F 22.6 °F 29.74 in NW 9.5 mph 19.6 mph 47 % 0.00 in
15:10 40.9 °F 21.7 °F 29.74 in WNW 10.4 mph 19.6 mph 46 % 0.00 in
15:15 40.7 °F 22.0 °F 29.74 in NNW 4.0 mph 13.8 mph 47 % 0.00 in
15:20 40.6 °F 22.4 °F 29.75 in West 7.1 mph 11.5 mph 48 % 0.00 in
15:25 40.6 °F 21.9 °F 29.75 in West 7.5 mph 12.0 mph 47 % 0.00 in
15:31 40.5 °F 21.3 °F 29.75 in WNW 8.7 mph 18.4 mph 46 % 0.00 in
15:36 40.4 °F 22.7 °F 29.76 in WNW 7.7 mph 15.0 mph 49 % 0.00 in
15:41 40.2 °F 21.0 °F 29.76 in NW 3.9 mph 11.5 mph 46 % 0.00 in
15:46 40.0 °F 20.9 °F 29.76 in NNW 5.7 mph 20.0 mph 46 % 0.00 in
15:51 39.8 °F 21.7 °F 29.77 in WNW 7.9 mph 13.0 mph 48 % 0.00 in
15:56 39.7 °F 20.6 °F 29.77 in NW 4.4 mph 17.3 mph 46 % 0.00 in
16:06 39.5 °F 22.4 °F 29.77 in NNW 7.9 mph 10.4 mph 50 % 0.00 in
16:11 39.4 °F 22.3 °F 29.78 in WNW 7.9 mph 13.8 mph 50 % 0.00 in
16:16 39.3 °F 22.7 °F 29.78 in NNW 8.8 mph 15.0 mph 51 % 0.00 in
16:22 39.1 °F 22.5 °F 29.78 in NNE 5.6 mph 16.1 mph 51 % 0.00 in
16:27 38.9 °F 21.3 °F 29.78 in NW 5.3 mph 13.8 mph 49 % 0.00 in
16:32 38.7 °F 19.7 °F 29.78 in West 5.8 mph 14.0 mph 46 % 0.00 in
16:37 38.6 °F 20.6 °F 29.79 in NW 5.4 mph 12.7 mph 48 % 0.00 in
16:42 38.4 °F 21.4 °F 29.79 in WNW 10.5 mph 18.4 mph 50 % 0.00 in
16:47 38.2 °F 19.7 °F 29.79 in WNW 6.9 mph 10.0 mph 47 % 0.00 in
16:52 38.0 °F 20.0 °F 29.80 in West 8.0 mph 12.0 mph 48 % 0.00 in
16:57 37.9 °F 19.4 °F 29.80 in NW 8.5 mph 18.4 mph 47 % 0.00 in
17:02 37.7 °F 20.2 °F 29.81 in WNW 10.6 mph 15.0 mph 49 % 0.00 in
17:07 37.5 °F 20.1 °F 29.82 in WNW 7.0 mph 20.7 mph 49 % 0.00 in
17:13 37.3 °F 20.8 °F 29.82 in NW 5.2 mph 11.5 mph 51 % 0.00 in
17:18 37.1 °F 19.7 °F 29.82 in NW 7.7 mph 16.1 mph 49 % 0.00 in
17:23 36.9 °F 20.9 °F 29.82 in North 6.2 mph 15.0 mph 52 % 0.00 in
17:28 36.8 °F 20.8 °F 29.82 in NW 9.0 mph 13.0 mph 52 % 0.00 in
17:33 36.6 °F 21.1 °F 29.82 in North 10.0 mph 16.1 mph 53 % 0.00 in
17:38 36.5 °F 20.1 °F 29.82 in NW 6.9 mph 23.0 mph 51 % 0.00 in
17:43 36.4 °F 19.5 °F 29.82 in NW 9.4 mph 16.1 mph 50 % 0.00 in
17:48 36.2 °F 19.8 °F 29.84 in NW 9.5 mph 12.7 mph 51 % 0.00 in
17:53 36.1 °F 19.7 °F 29.84 in NW 7.7 mph 11.5 mph 51 % 0.00 in
17:59 35.9 °F 19.5 °F 29.85 in North 5.5 mph 18.4 mph 51 % 0.00 in
18:04 35.8 °F 19.4 °F 29.85 in NNW 6.2 mph 19.6 mph 51 % 0.00 in
18:09 35.7 °F 19.8 °F 29.86 in WSW 7.8 mph 15.0 mph 52 % 0.00 in
18:14 35.6 °F 19.7 °F 29.86 in NW 7.0 mph 15.0 mph 52 % 0.00 in
18:19 35.5 °F 19.1 °F 29.87 in NW 10.4 mph 16.1 mph 51 % 0.00 in
18:24 35.3 °F 18.5 °F 29.88 in NW 10.6 mph 14.0 mph 50 % 0.00 in
18:29 35.2 °F 18.9 °F 29.88 in North 7.6 mph 19.6 mph 51 % 0.00 in
18:34 35.1 °F 18.8 °F 29.88 in WNW 5.1 mph 15.0 mph 51 % 0.00 in
18:44 34.9 °F 18.6 °F 29.89 in NNW 4.8 mph 13.8 mph 51 % 0.00 in
18:50 34.8 °F 18.5 °F 29.89 in NW 6.4 mph 11.5 mph 51 % 0.00 in
18:55 34.6 °F 18.3 °F 29.90 in WNW 7.2 mph 13.8 mph 51 % 0.00 in
19:00 34.6 °F 18.8 °F 29.91 in WNW 5.1 mph 17.3 mph 52 % 0.00 in
19:05 34.4 °F 18.1 °F 29.90 in NW 5.8 mph 13.8 mph 51 % 0.00 in
19:10 34.3 °F 17.6 °F 29.91 in NW 9.3 mph 16.1 mph 50 % 0.00 in
19:15 34.1 °F 16.9 °F 29.91 in NW 8.9 mph 19.6 mph 49 % 0.00 in
19:20 33.9 °F 16.7 °F 29.92 in NW 7.5 mph 16.1 mph 49 % 0.00 in
19:25 33.8 °F 18.0 °F 29.92 in NW 10.2 mph 11.5 mph 52 % 0.00 in
19:30 33.7 °F 17.5 °F 29.93 in NNW 6.7 mph 16.0 mph 51 % 0.00 in
19:35 33.6 °F 16.9 °F 29.93 in NW 9.2 mph 19.6 mph 50 % 0.00 in
19:41 33.5 °F 16.8 °F 29.93 in WNW 8.0 mph 17.0 mph 50 % 0.00 in
19:51 33.4 °F 17.2 °F 29.94 in North 12.7 mph 24.2 mph 51 % 0.00 in
19:56 33.3 °F 17.5 °F 29.94 in West 8.2 mph 15.0 mph 52 % 0.00 in
20:01 33.2 °F 16.5 °F 29.94 in NW 7.0 mph 11.5 mph 50 % 0.00 in
20:06 33.1 °F 16.0 °F 29.95 in WNW 5.3 mph 13.8 mph 49 % 0.00 in
20:11 33.0 °F 16.8 °F 29.95 in NNW 7.6 mph 12.7 mph 51 % 0.00 in
20:16 32.9 °F 17.6 °F 29.95 in NW 7.9 mph 13.8 mph 53 % 0.00 in
20:21 32.7 °F 17.4 °F 29.96 in North 8.8 mph 16.1 mph 53 % 0.00 in
20:26 32.6 °F 16.9 °F 29.96 in North 7.9 mph 15.0 mph 52 % 0.00 in
20:32 32.5 °F 16.8 °F 29.97 in NNW 8.0 mph 15.0 mph 52 % 0.00 in
20:37 32.4 °F 16.7 °F 29.97 in WNW 10.1 mph 16.0 mph 52 % 0.00 in
20:42 32.3 °F 16.6 °F 29.98 in NNE 9.2 mph 18.4 mph 52 % 0.00 in
20:47 32.2 °F 17.0 °F 29.98 in WNW 6.1 mph 13.8 mph 53 % 0.00 in
20:52 32.2 °F 17.4 °F 29.98 in WNW 5.6 mph 15.0 mph 54 % 0.00 in
20:57 32.1 °F 17.3 °F 29.98 in NNW 10.8 mph 16.1 mph 54 % 0.00 in
21:02 31.9 °F 16.7 °F 29.99 in NW 7.7 mph 18.4 mph 53 % 0.00 in
21:07 31.8 °F 17.0 °F 29.99 in NNW 8.3 mph 16.1 mph 54 % 0.00 in
21:12 31.7 °F 16.1 °F 29.99 in NW 8.9 mph 15.0 mph 52 % 0.00 in
21:17 31.6 °F 16.8 °F 29.99 in WNW 15.5 mph 20.7 mph 54 % 0.00 in
21:23 31.6 °F 16.8 °F 30.00 in West 9.3 mph 13.8 mph 54 % 0.00 in
21:28 31.4 °F 16.2 °F 30.00 in NW 10.6 mph 18.4 mph 53 % 0.00 in
21:33 31.3 °F 16.6 °F 30.00 in NW 10.3 mph 23.0 mph 54 % 0.00 in
21:38 31.2 °F 15.6 °F 30.00 in WNW 8.9 mph 17.3 mph 52 % 0.00 in
21:43 31.2 °F 16.0 °F 30.01 in West 4.9 mph 11.5 mph 53 % 0.00 in
21:48 31.1 °F 15.5 °F 30.01 in West 9.1 mph 16.0 mph 52 % 0.00 in
21:53 31.0 °F 16.3 °F 30.02 in WNW 8.7 mph 14.0 mph 54 % 0.00 in
22:03 30.8 °F 16.1 °F 30.02 in WNW 7.8 mph 12.7 mph 54 % 0.00 in
22:08 30.8 °F 16.1 °F 30.02 in WNW 8.8 mph 15.0 mph 54 % 0.00 in
22:14 30.7 °F 16.0 °F 30.02 in NNW 6.4 mph 11.5 mph 54 % 0.00 in
22:19 30.6 °F 15.9 °F 30.03 in NW 9.3 mph 18.4 mph 54 % 0.00 in
22:24 30.5 °F 15.4 °F 30.03 in NNW 10.1 mph 18.4 mph 53 % 0.00 in
22:34 30.3 °F 16.0 °F 30.04 in WNW 10.5 mph 19.6 mph 55 % 0.00 in
22:39 30.3 °F 16.0 °F 30.04 in NW 9.0 mph 14.0 mph 55 % 0.00 in
22:44 30.2 °F 15.5 °F 30.04 in NNW 10.5 mph 19.0 mph 54 % 0.00 in
22:49 30.1 °F 15.4 °F 30.04 in NNW 7.4 mph 11.5 mph 54 % 0.00 in
22:54 30.0 °F 15.3 °F 30.05 in West 7.0 mph 12.0 mph 54 % 0.00 in
22:59 29.9 °F 15.7 °F 30.05 in WSW 5.3 mph 6.9 mph 55 % 0.00 in
23:05 29.9 °F 15.3 °F 30.05 in WNW 6.5 mph 15.0 mph 54 % 0.00 in
23:10 29.8 °F 14.7 °F 30.05 in West 5.2 mph 15.0 mph 53 % 0.00 in
23:15 29.7 °F 15.5 °F 30.05 in WNW 9.2 mph 15.0 mph 55 % 0.00 in
23:20 29.6 °F 15.0 °F 30.05 in WNW 7.5 mph 16.1 mph 54 % 0.00 in
23:25 29.5 °F 15.7 °F 30.05 in NW 6.8 mph 12.0 mph 56 % 0.00 in
23:30 29.4 °F 15.6 °F 30.05 in WNW 4.5 mph 8.1 mph 56 % 0.00 in
23:35 29.3 °F 15.1 °F 30.06 in NNW 6.4 mph 11.5 mph 55 % 0.00 in
23:40 29.2 °F 15.0 °F 30.06 in WNW 4.8 mph 15.0 mph 55 % 0.00 in
23:45 29.2 °F 15.4 °F 30.06 in WSW 7.5 mph 12.7 mph 56 % 0.00 in
23:50 29.1 °F 14.9 °F 30.07 in West 5.1 mph 11.5 mph 55 % 0.00 in
23:56 29.0 °F 15.2 °F 30.07 in WNW 8.5 mph 10.4 mph 56 % 0.00 in
Crab Meadow Weather
Compliments of Weather Underground - 2.75 mb

Script developed by  Jim McMurry - jmcmurry@mwt.net Adapted for the template by  Wim van der Kuil - Leuven-Template.eu

Recycling: The average household throws away 13,000 separate pieces of paper each year. Most is packaging and junk mail.